Terminal Aerodrome Forecast
Issued by NWS Billings, MT

Home | Current Version | Previous Version | Graphics & Text | Print | Product List | Glossary On
Versions: 1 2 3 4 5 6 7 8 9 10 11 12
000
FTUS45 KBYZ 251725
TAFMLS
TAF
KMLS 251725Z 2518/2618 31011KT P6SM VCSH SCT050 BKN080
     FM260000 25009KT P6SM VCSH BKN060
     FM261000 29009KT P6SM SCT060 BKN100
     FM261400 VRB06KT P6SM FEW050 SCT200=

USA.gov is the U.S. government's official web portal to all federal, state and local government web resources and services.